Terminal Aerodrome Forecast
Issued by NWS

Home | Current Version | Previous Version | Text Only | Print | Product List | Glossary On
Versions: 1 2 3 4 5 6 7 8 9 10 11 12
000
FTUS46 KMTR 261724
TAFMRY
TAF
KMRY 261724Z 2618/2718 29005KT P6SM SKC
     FM262100 30008KT P6SM SKC
     FM270300 VRB04KT P6SM SKC=

USA.gov is the U.S. government's official web portal to all federal, state and local government web resources and services.